createdAt,value
2017-08-16T00:00:05.836Z,44.70
2017-08-16T00:02:33.094Z,45.83
2017-08-16T00:05:01.025Z,45.30
2017-08-16T00:07:28.599Z,43.77
2017-08-16T00:09:55.622Z,45.37
2017-08-16T00:12:22.868Z,42.50
2017-08-16T00:14:49.767Z,44.70
2017-08-16T00:17:16.640Z,47.67
2017-08-16T00:19:44.312Z,51.90
2017-08-16T00:22:11.372Z,46.80
2017-08-16T00:24:38.423Z,48.57
2017-08-16T00:27:05.208Z,44.83
2017-08-16T00:29:32.049Z,46.27
2017-08-16T00:31:58.879Z,50.17
2017-08-16T00:34:26.011Z,52.10
2017-08-16T00:36:52.853Z,52.40
2017-08-16T00:39:19.954Z,52.87
2017-08-16T00:41:47.407Z,53.73
2017-08-16T00:44:14.243Z,55.67
2017-08-16T00:46:41.280Z,55.33
2017-08-16T00:49:08.335Z,58.77
2017-08-16T00:51:35.701Z,60.30
2017-08-16T00:54:02.590Z,57.57
2017-08-16T00:56:30.001Z,56.67
2017-08-16T00:58:56.854Z,58.77
2017-08-16T01:01:23.910Z,56.97
2017-08-16T01:03:50.965Z,59.10
2017-08-16T01:06:18.014Z,58.27
2017-08-16T01:08:44.902Z,58.53
2017-08-16T01:11:12.730Z,59.77
2017-08-16T01:13:39.786Z,56.40
2017-08-16T01:16:07.076Z,57.57
2017-08-16T01:18:34.816Z,58.17
2017-08-16T01:21:02.022Z,59.47
2017-08-16T01:23:29.430Z,59.50
2017-08-16T01:25:56.216Z,56.73
2017-08-16T01:28:23.465Z,58.70
2017-08-16T01:30:50.278Z,59.00
2017-08-16T01:33:17.064Z,55.87
2017-08-16T01:35:44.187Z,59.17
2017-08-16T01:38:11.426Z,55.87
2017-08-16T01:40:39.172Z,58.40
2017-08-16T01:43:06.014Z,58.80
2017-08-16T01:45:32.837Z,61.70
2017-08-16T01:47:59.635Z,58.90
2017-08-16T01:50:26.811Z,59.60
2017-08-16T01:52:54.364Z,56.57
2017-08-16T01:55:21.530Z,56.63
2017-08-16T01:57:48.584Z,53.80
2017-08-16T02:00:15.712Z,57.67
2017-08-16T02:02:42.842Z,59.83
2017-08-16T02:05:09.890Z,55.83
2017-08-16T02:07:36.793Z,56.00
2017-08-16T02:10:04.464Z,58.03
2017-08-16T02:12:31.294Z,58.90
2017-08-16T02:14:58.567Z,56.60
2017-08-16T02:17:26.237Z,57.20
2017-08-16T02:19:53.137Z,55.77
2017-08-16T02:22:19.944Z,53.03
2017-08-16T02:24:47.157Z,56.53
2017-08-16T02:27:14.456Z,57.13
2017-08-16T02:29:41.297Z,55.33
2017-08-16T02:32:08.807Z,55.20
2017-08-16T02:34:35.672Z,52.70
2017-08-16T02:37:02.662Z,51.70
2017-08-16T02:39:29.720Z,54.13
2017-08-16T02:41:56.570Z,56.90
2017-08-16T02:44:23.383Z,56.30
2017-08-16T02:46:50.408Z,53.93
2017-08-16T02:49:17.858Z,54.67
2017-08-16T02:51:44.978Z,56.70
2017-08-16T02:54:11.791Z,58.20
2017-08-16T02:56:39.086Z,54.10
2017-08-16T02:59:06.635Z,56.50
2017-08-16T03:01:33.988Z,54.40
2017-08-16T03:04:01.780Z,53.13
2017-08-16T03:06:28.842Z,56.13
2017-08-16T03:08:56.258Z,54.00
2017-08-16T03:11:23.118Z,52.03
2017-08-16T03:13:50.378Z,58.90
2017-08-16T03:16:17.665Z,54.17
2017-08-16T03:18:44.527Z,59.70
2017-08-16T03:21:12.332Z,57.93
2017-08-16T03:23:39.139Z,54.53
2017-08-16T03:26:06.180Z,55.70
2017-08-16T03:28:33.761Z,55.67
2017-08-16T03:31:00.995Z,57.13
2017-08-16T03:33:28.556Z,52.40
2017-08-16T03:35:55.627Z,53.17
2017-08-16T03:38:22.438Z,40.47
2017-08-16T03:40:49.729Z,55.87
2017-08-16T03:43:16.535Z,49.20
2017-08-16T03:45:43.832Z,50.37
2017-08-16T03:48:10.684Z,47.03
2017-08-16T03:50:38.100Z,50.10
2017-08-16T03:53:05.152Z,45.80
2017-08-16T03:55:32.357Z,44.17
2017-08-16T03:57:59.234Z,44.30
2017-08-16T04:00:26.295Z,45.07
2017-08-16T04:02:53.513Z,45.33
2017-08-16T04:05:20.563Z,43.23
2017-08-16T04:07:47.808Z,42.90
2017-08-16T04:10:14.667Z,40.77
2017-08-16T04:12:41.495Z,41.53
2017-08-16T04:15:09.080Z,41.53
2017-08-16T04:17:36.167Z,38.10
2017-08-16T04:20:03.494Z,40.70
2017-08-16T04:22:30.549Z,40.27
2017-08-16T04:24:57.913Z,37.00
2017-08-16T04:27:24.971Z,36.87
2017-08-16T04:29:51.854Z,38.80
2017-08-16T04:32:19.385Z,37.50
2017-08-16T04:34:46.499Z,36.73
2017-08-16T04:37:13.291Z,35.90
2017-08-16T04:39:40.538Z,33.53
2017-08-16T04:42:07.588Z,34.23
2017-08-16T04:44:34.482Z,37.10
2017-08-16T04:47:01.961Z,34.40
2017-08-16T04:49:29.749Z,31.50
2017-08-16T04:51:56.555Z,34.37
2017-08-16T04:54:23.637Z,33.10
2017-08-16T04:56:50.831Z,32.90
2017-08-16T04:59:18.413Z,31.47
2017-08-16T05:01:45.742Z,32.27
2017-08-16T05:04:13.532Z,29.53
2017-08-16T05:06:40.768Z,30.50
2017-08-16T05:09:07.941Z,27.80
2017-08-16T05:11:34.991Z,27.63
2017-08-16T05:14:02.041Z,26.87
2017-08-16T05:16:29.316Z,26.30
2017-08-16T05:18:56.290Z,27.37
2017-08-16T05:21:23.365Z,27.50
2017-08-16T05:23:50.567Z,25.83
2017-08-16T05:26:17.373Z,26.50
2017-08-16T05:28:44.361Z,27.37
2017-08-16T05:31:12.139Z,26.40
2017-08-16T05:33:39.334Z,25.20
2017-08-16T05:36:06.419Z,23.17
2017-08-16T05:38:33.320Z,22.73
2017-08-16T05:41:01.086Z,24.57
2017-08-16T05:43:28.216Z,25.60
2017-08-16T05:45:55.120Z,21.87
2017-08-16T05:48:21.955Z,22.67
2017-08-16T05:50:49.209Z,24.20
2017-08-16T05:53:16.426Z,20.40
2017-08-16T05:55:43.484Z,21.27
2017-08-16T05:58:11.147Z,18.53
2017-08-16T06:00:38.513Z,16.40
2017-08-16T06:03:05.559Z,17.83
2017-08-16T06:05:32.336Z,18.40
2017-08-16T06:07:59.363Z,19.43
2017-08-16T06:10:26.273Z,18.33
2017-08-16T06:12:53.772Z,19.23
2017-08-16T06:15:20.826Z,14.67
2017-08-16T06:17:47.711Z,13.57
2017-08-16T06:20:14.932Z,11.50
2017-08-16T06:22:41.779Z,10.73
2017-08-16T06:25:08.623Z,11.50
2017-08-16T06:27:35.781Z,13.47
2017-08-16T06:30:03.041Z,11.90
2017-08-16T06:32:30.802Z,10.00
2017-08-16T06:34:57.587Z,9.90
2017-08-16T06:37:24.611Z,10.60
2017-08-16T06:39:51.494Z,8.63
2017-08-16T06:42:18.905Z,8.90
2017-08-16T06:44:45.723Z,9.43
2017-08-16T06:47:12.820Z,8.20
2017-08-16T06:49:40.600Z,8.83
2017-08-16T06:52:07.858Z,7.83
2017-08-16T06:54:34.724Z,7.40
2017-08-16T06:57:01.802Z,6.10
2017-08-16T06:59:29.009Z,6.60
2017-08-16T07:01:56.403Z,7.17
2017-08-16T07:04:23.422Z,7.00
2017-08-16T07:06:50.322Z,6.83
2017-08-16T07:09:18.143Z,6.57
2017-08-16T07:11:45.378Z,6.37
2017-08-16T07:14:12.394Z,7.00
2017-08-16T07:16:39.174Z,6.70
2017-08-16T07:19:06.458Z,6.00
2017-08-16T07:21:33.715Z,6.70
2017-08-16T07:24:00.496Z,6.07
2017-08-16T07:26:27.299Z,6.87
2017-08-16T07:28:55.247Z,7.00
2017-08-16T07:31:22.393Z,5.43
2017-08-16T07:33:49.433Z,5.70
2017-08-16T07:36:16.498Z,5.90
2017-08-16T07:38:43.333Z,6.23
2017-08-16T07:41:11.008Z,4.23
2017-08-16T07:43:39.185Z,4.80
2017-08-16T07:46:06.395Z,5.20
2017-08-16T07:48:33.445Z,4.27
2017-08-16T07:51:00.677Z,5.03
2017-08-16T07:53:27.862Z,4.33
2017-08-16T07:55:54.916Z,3.47
2017-08-16T07:58:21.752Z,4.20
2017-08-16T08:00:48.520Z,4.00
2017-08-16T08:03:15.746Z,3.30
2017-08-16T08:05:43.497Z,5.20
2017-08-16T08:08:10.793Z,5.17
2017-08-16T08:10:37.584Z,4.60
2017-08-16T08:13:04.592Z,4.60
2017-08-16T08:15:31.725Z,3.90
2017-08-16T08:17:58.522Z,3.90
2017-08-16T08:20:25.867Z,4.37
2017-08-16T08:22:53.119Z,4.23
2017-08-16T08:25:20.167Z,3.93
2017-08-16T08:27:47.050Z,3.80
2017-08-16T08:30:13.819Z,3.70
2017-08-16T08:32:41.025Z,3.10
2017-08-16T08:35:08.381Z,3.20
2017-08-16T08:37:35.272Z,3.93
2017-08-16T08:40:02.486Z,3.47
2017-08-16T08:42:29.537Z,3.00
2017-08-16T08:44:56.659Z,3.33
2017-08-16T08:47:23.792Z,3.10
2017-08-16T08:49:51.020Z,3.30
2017-08-16T08:52:18.295Z,2.83
2017-08-16T08:54:45.701Z,2.67
2017-08-16T08:57:13.269Z,3.03
2017-08-16T08:59:40.486Z,3.10
2017-08-16T09:02:07.500Z,3.03
2017-08-16T09:04:35.199Z,3.50
2017-08-16T09:07:02.321Z,2.60
2017-08-16T09:09:29.096Z,2.97
2017-08-16T09:11:56.018Z,2.67
2017-08-16T09:14:22.787Z,2.67
2017-08-16T09:16:50.026Z,3.13
2017-08-16T09:19:17.482Z,2.47
2017-08-16T09:21:44.371Z,3.20
2017-08-16T09:24:11.980Z,3.27
2017-08-16T09:26:39.563Z,2.53
2017-08-16T09:29:07.229Z,2.20
2017-08-16T09:31:34.134Z,2.50
2017-08-16T09:34:01.177Z,2.70
2017-08-16T09:36:28.227Z,2.60
2017-08-16T09:38:55.999Z,2.60
2017-08-16T09:41:23.399Z,2.63
2017-08-16T09:43:50.306Z,2.73
2017-08-16T09:46:17.446Z,2.73
2017-08-16T09:48:44.406Z,2.43
2017-08-16T09:51:11.175Z,2.80
2017-08-16T09:53:38.385Z,3.17
2017-08-16T09:56:05.442Z,2.50
2017-08-16T09:58:32.231Z,2.60
2017-08-16T10:00:59.551Z,2.10
2017-08-16T10:03:26.584Z,2.37
2017-08-16T10:05:53.862Z,1.90
2017-08-16T10:08:20.686Z,2.07
2017-08-16T10:10:47.511Z,2.10
2017-08-16T10:13:14.635Z,2.60
2017-08-16T10:15:41.549Z,2.47
2017-08-16T10:18:08.721Z,2.27
2017-08-16T10:20:35.650Z,2.50
2017-08-16T10:23:03.156Z,2.30
2017-08-16T10:25:30.361Z,1.87
2017-08-16T10:27:57.188Z,1.87
2017-08-16T10:30:24.479Z,2.00
2017-08-16T10:32:51.536Z,2.20
2017-08-16T10:35:19.200Z,2.07
2017-08-16T10:37:46.263Z,1.87
2017-08-16T10:40:13.311Z,2.20
2017-08-16T10:42:40.195Z,2.10
2017-08-16T10:45:06.963Z,2.00
2017-08-16T10:47:34.748Z,2.43
2017-08-16T10:50:02.404Z,2.03
2017-08-16T10:52:29.183Z,2.77
2017-08-16T10:54:56.605Z,2.60
2017-08-16T10:57:23.738Z,2.10
2017-08-16T10:59:50.659Z,1.87
2017-08-16T11:02:17.745Z,2.30
2017-08-16T11:04:44.878Z,2.50
2017-08-16T11:07:11.962Z,2.37
2017-08-16T11:09:39.170Z,2.50
2017-08-16T11:12:06.834Z,2.13
2017-08-16T11:14:33.887Z,2.13
2017-08-16T11:17:01.176Z,2.00
2017-08-16T11:19:28.514Z,1.70
2017-08-16T11:21:55.887Z,1.97
2017-08-16T11:24:22.860Z,2.10
2017-08-16T11:26:50.082Z,1.90
2017-08-16T11:29:17.749Z,2.20
2017-08-16T11:31:44.795Z,1.10
2017-08-16T11:34:11.852Z,2.00
2017-08-16T11:36:39.571Z,1.63
2017-08-16T11:39:06.877Z,1.70
2017-08-16T11:41:33.781Z,1.67
2017-08-16T11:44:00.982Z,1.60
2017-08-16T11:46:28.246Z,1.70
2017-08-16T11:48:55.398Z,1.53
2017-08-16T11:51:22.450Z,1.57
2017-08-16T11:53:49.263Z,1.60
2017-08-16T11:56:16.095Z,1.87
2017-08-16T11:58:43.216Z,4.00
2017-08-16T12:01:10.577Z,1.70
2017-08-16T12:03:37.551Z,1.70
2017-08-16T12:06:04.769Z,1.90
2017-08-16T12:08:31.597Z,1.90
2017-08-16T12:10:58.384Z,1.97
2017-08-16T12:13:25.630Z,1.63
2017-08-16T12:15:52.442Z,2.40
2017-08-16T12:18:20.038Z,2.00
2017-08-16T12:20:47.099Z,1.83
2017-08-16T12:23:14.756Z,1.60
2017-08-16T12:25:41.536Z,1.20
2017-08-16T12:28:08.553Z,1.70
2017-08-16T12:30:35.603Z,1.30
2017-08-16T12:33:02.490Z,1.47
2017-08-16T12:35:29.403Z,1.93
2017-08-16T12:37:56.811Z,2.10
2017-08-16T12:40:23.818Z,1.63
2017-08-16T12:42:50.872Z,1.53
2017-08-16T12:45:18.097Z,1.67
2017-08-16T12:47:44.981Z,1.43
2017-08-16T12:50:12.032Z,1.17
2017-08-16T12:52:38.852Z,1.50
2017-08-16T12:55:05.731Z,1.33
2017-08-16T12:57:33.513Z,1.30
2017-08-16T13:00:00.559Z,1.83
2017-08-16T13:02:27.603Z,1.00
2017-08-16T13:04:54.383Z,1.33
2017-08-16T13:07:22.017Z,1.10
2017-08-16T13:09:49.068Z,1.40
2017-08-16T13:12:15.854Z,1.10
2017-08-16T13:14:42.706Z,1.13
2017-08-16T13:17:09.612Z,1.70
2017-08-16T13:19:36.841Z,1.57
2017-08-16T13:22:04.202Z,1.20
2017-08-16T13:24:30.975Z,1.47
2017-08-16T13:26:57.824Z,1.17
2017-08-16T13:29:25.454Z,0.87
2017-08-16T13:31:52.555Z,1.23
2017-08-16T13:34:19.921Z,1.00
2017-08-16T13:36:46.794Z,1.33
2017-08-16T13:39:14.014Z,1.57
2017-08-16T13:41:40.913Z,1.10
2017-08-16T13:44:07.735Z,0.77
2017-08-16T13:46:34.698Z,1.40
2017-08-16T13:49:01.490Z,0.97
2017-08-16T13:51:28.666Z,1.07
2017-08-16T13:53:55.919Z,1.40
2017-08-16T13:56:22.696Z,1.00
2017-08-16T13:58:49.511Z,0.93
2017-08-16T14:01:16.354Z,1.20
2017-08-16T14:03:43.132Z,1.20
2017-08-16T14:06:10.625Z,1.20
2017-08-16T14:08:37.729Z,1.13
2017-08-16T14:11:05.913Z,1.20
2017-08-16T14:13:32.887Z,1.10
2017-08-16T14:16:00.125Z,1.00
2017-08-16T14:18:27.359Z,1.10
2017-08-16T14:20:55.083Z,1.03
2017-08-16T14:23:22.913Z,1.00
2017-08-16T14:25:50.317Z,1.10
2017-08-16T14:28:17.798Z,0.90
2017-08-16T14:30:44.892Z,1.20
2017-08-16T14:33:11.672Z,0.90
2017-08-16T14:35:39.600Z,0.73
2017-08-16T14:38:07.091Z,1.10
2017-08-16T14:40:34.029Z,1.03
2017-08-16T14:43:00.910Z,1.00
2017-08-16T14:45:28.885Z,1.10
2017-08-16T14:47:56.040Z,1.00
2017-08-16T14:50:22.997Z,1.20
2017-08-16T14:52:49.905Z,1.00
2017-08-16T14:55:16.723Z,0.93
2017-08-16T14:57:44.151Z,0.87
2017-08-16T15:00:11.069Z,1.00
2017-08-16T15:02:38.734Z,0.80
2017-08-16T15:05:05.785Z,1.07
2017-08-16T15:07:32.837Z,1.20
2017-08-16T15:10:00.447Z,1.10
2017-08-16T15:12:27.871Z,1.50
2017-08-16T15:14:54.917Z,1.23
2017-08-16T15:17:21.706Z,1.00
2017-08-16T15:19:48.866Z,1.00
2017-08-16T15:22:16.634Z,1.07
2017-08-16T15:24:43.403Z,1.10
2017-08-16T15:27:10.337Z,1.77
2017-08-16T15:29:37.509Z,2.20
2017-08-16T15:32:04.598Z,1.30
2017-08-16T15:34:32.043Z,1.30
2017-08-16T15:36:59.145Z,1.70
2017-08-16T15:39:26.883Z,1.47
2017-08-16T15:41:54.997Z,1.10
2017-08-16T15:44:22.226Z,1.40
2017-08-16T15:46:49.007Z,1.33
2017-08-16T15:49:15.961Z,0.93
2017-08-16T15:51:43.008Z,1.17
2017-08-16T15:54:10.062Z,1.10
2017-08-16T15:56:36.887Z,1.23
2017-08-16T15:59:04.742Z,1.20
2017-08-16T16:01:31.760Z,1.57
2017-08-16T16:03:58.587Z,1.43
2017-08-16T16:06:26.200Z,2.10
2017-08-16T16:08:53.983Z,2.43
2017-08-16T16:11:21.133Z,3.73
2017-08-16T16:13:48.509Z,1.40
2017-08-16T16:16:15.626Z,1.40
2017-08-16T16:18:42.914Z,1.53
2017-08-16T16:21:10.263Z,1.30
2017-08-16T16:23:37.767Z,1.17
2017-08-16T16:26:04.984Z,1.50
2017-08-16T16:28:32.044Z,1.90
2017-08-16T16:30:59.674Z,2.03
2017-08-16T16:33:27.077Z,1.60
2017-08-16T16:35:54.581Z,1.27
2017-08-16T16:38:21.781Z,1.27
2017-08-16T16:40:49.023Z,0.97
2017-08-16T16:43:16.031Z,1.40
2017-08-16T16:45:43.255Z,1.73
2017-08-16T16:48:11.226Z,1.40
2017-08-16T16:50:38.280Z,1.20
2017-08-16T16:53:05.433Z,1.60
2017-08-16T16:55:32.538Z,1.40
2017-08-16T16:57:59.586Z,1.53
2017-08-16T17:00:26.727Z,1.70
2017-08-16T17:02:54.619Z,1.13
2017-08-16T17:05:22.396Z,1.23
2017-08-16T17:07:49.171Z,1.43
2017-08-16T17:10:16.423Z,1.47
2017-08-16T17:12:43.995Z,1.47
2017-08-16T17:15:10.962Z,1.77
2017-08-16T17:17:37.847Z,1.30
2017-08-16T17:20:05.395Z,2.00
2017-08-16T17:22:32.424Z,1.83
2017-08-16T17:24:59.514Z,2.00
2017-08-16T17:27:26.535Z,1.53
2017-08-16T17:29:53.419Z,2.50
2017-08-16T17:32:20.476Z,3.93
2017-08-16T17:34:47.253Z,1.70
2017-08-16T17:37:15.049Z,3.53
2017-08-16T17:39:41.934Z,2.00
2017-08-16T17:42:08.994Z,2.00
2017-08-16T17:44:36.112Z,4.20
2017-08-16T17:47:03.571Z,2.23
2017-08-16T17:49:30.623Z,1.83
2017-08-16T17:51:57.502Z,1.93
2017-08-16T17:54:24.728Z,1.87
2017-08-16T17:56:52.129Z,1.80
2017-08-16T17:59:19.626Z,1.90
2017-08-16T18:01:46.440Z,2.03
2017-08-16T18:04:13.219Z,1.90
2017-08-16T18:06:40.131Z,1.90
2017-08-16T18:09:07.204Z,2.03
2017-08-16T18:11:35.022Z,2.20
2017-08-16T18:14:02.587Z,1.97
2017-08-16T18:16:29.916Z,1.87
2017-08-16T18:18:57.101Z,1.87
2017-08-16T18:21:23.879Z,2.10
2017-08-16T18:23:50.734Z,1.77
2017-08-16T18:26:17.546Z,1.80
2017-08-16T18:28:45.400Z,2.37
2017-08-16T18:31:12.568Z,2.20
2017-08-16T18:33:40.348Z,2.20
2017-08-16T18:36:07.424Z,3.03
2017-08-16T18:38:34.447Z,2.37
2017-08-16T18:41:01.595Z,2.60
2017-08-16T18:43:28.384Z,2.60
2017-08-16T18:45:55.614Z,3.40
2017-08-16T18:48:23.279Z,3.03
2017-08-16T18:50:50.806Z,2.97
2017-08-16T18:53:17.993Z,3.47
2017-08-16T18:55:45.376Z,3.83
2017-08-16T18:58:12.491Z,4.57
2017-08-16T19:00:39.896Z,3.93
2017-08-16T19:03:07.093Z,4.17
2017-08-16T19:05:34.014Z,5.50
2017-08-16T19:08:00.861Z,5.20
2017-08-16T19:10:27.957Z,7.33
2017-08-16T19:12:55.232Z,8.80
2017-08-16T19:15:22.393Z,8.50
2017-08-16T19:17:49.497Z,7.70
2017-08-16T19:20:16.819Z,6.40
2017-08-16T19:22:43.704Z,6.70
2017-08-16T19:25:10.930Z,7.00
2017-08-16T19:27:37.808Z,7.70
2017-08-16T19:30:04.644Z,6.67
2017-08-16T19:32:31.596Z,5.43
2017-08-16T19:34:58.817Z,5.60
2017-08-16T19:37:25.870Z,5.33
2017-08-16T19:39:52.924Z,4.33
2017-08-16T19:42:19.687Z,4.40
2017-08-16T19:44:46.555Z,3.87
2017-08-16T19:47:14.405Z,4.67
2017-08-16T19:49:41.279Z,4.40
2017-08-16T19:52:08.903Z,4.50
2017-08-16T19:54:35.871Z,5.40
2017-08-16T19:57:03.387Z,5.67
2017-08-16T19:59:30.269Z,4.67
2017-08-16T20:01:57.933Z,4.63
2017-08-16T20:04:24.989Z,5.20
2017-08-16T20:06:52.048Z,5.33
2017-08-16T20:09:19.591Z,6.40
2017-08-16T20:11:46.397Z,9.80
2017-08-16T20:14:13.250Z,9.27
2017-08-16T20:16:40.068Z,14.13
2017-08-16T20:19:06.999Z,28.50
2017-08-16T20:21:34.057Z,7.50
2017-08-16T20:24:01.107Z,7.50
2017-08-16T20:26:28.631Z,6.30
2017-08-16T20:28:56.442Z,6.97
2017-08-16T20:31:23.227Z,7.07
2017-08-16T20:33:49.998Z,6.13
2017-08-16T20:36:17.861Z,5.37
2017-08-16T20:38:45.170Z,6.20
2017-08-16T20:41:12.054Z,7.30
2017-08-16T20:43:39.064Z,5.40
2017-08-16T20:46:06.735Z,6.17
2017-08-16T20:48:33.787Z,6.43
2017-08-16T20:51:00.651Z,5.63
2017-08-16T20:53:27.905Z,6.00
2017-08-16T20:55:55.148Z,6.00
2017-08-16T20:58:22.259Z,5.57
2017-08-16T21:00:49.097Z,5.23
2017-08-16T21:03:15.901Z,5.40
2017-08-16T21:05:43.001Z,5.40
2017-08-16T21:08:10.050Z,5.43
2017-08-16T21:10:37.266Z,5.80
2017-08-16T21:13:04.102Z,6.07
2017-08-16T21:15:31.371Z,7.90
2017-08-16T21:17:58.429Z,8.67
2017-08-16T21:20:25.477Z,7.40
2017-08-16T21:22:52.329Z,7.80
2017-08-16T21:25:20.155Z,6.63
2017-08-16T21:27:46.971Z,6.73
2017-08-16T21:30:14.000Z,6.63
2017-08-16T21:32:41.052Z,8.70
2017-08-16T21:35:07.949Z,9.07
2017-08-16T21:37:35.462Z,8.80
2017-08-16T21:40:02.242Z,8.23
2017-08-16T21:42:29.102Z,7.93
2017-08-16T21:44:56.009Z,7.73
2017-08-16T21:47:23.673Z,6.40
2017-08-16T21:49:50.726Z,7.03
2017-08-16T21:52:17.623Z,6.83
2017-08-16T21:54:44.412Z,7.23
2017-08-16T21:57:11.274Z,6.33
2017-08-16T21:59:38.327Z,6.30
2017-08-16T22:02:05.223Z,7.90
2017-08-16T22:04:32.283Z,6.30
2017-08-16T22:06:59.331Z,6.13
2017-08-16T22:09:26.377Z,6.63
2017-08-16T22:11:53.600Z,5.47
2017-08-16T22:14:20.954Z,6.10
2017-08-16T22:16:47.777Z,6.00
2017-08-16T22:19:14.622Z,5.53
2017-08-16T22:21:41.805Z,4.93
2017-08-16T22:24:08.664Z,5.23
2017-08-16T22:26:35.754Z,5.63
2017-08-16T22:29:02.802Z,5.40
2017-08-16T22:31:30.019Z,5.33
2017-08-16T22:33:57.409Z,5.70
2017-08-16T22:36:25.045Z,5.70
2017-08-16T22:38:51.930Z,5.20
2017-08-16T22:41:18.842Z,5.33
2017-08-16T22:43:46.613Z,5.33
2017-08-16T22:46:13.692Z,5.23
2017-08-16T22:48:41.046Z,5.23
2017-08-16T22:51:08.591Z,5.67
2017-08-16T22:53:35.384Z,4.70
2017-08-16T22:56:02.896Z,5.10
2017-08-16T22:58:30.058Z,4.60
2017-08-16T23:00:57.298Z,5.13
2017-08-16T23:03:25.015Z,5.50
2017-08-16T23:05:52.439Z,5.60
2017-08-16T23:08:19.505Z,4.63
2017-08-16T23:10:46.561Z,4.80
2017-08-16T23:13:13.930Z,5.37
2017-08-16T23:15:40.808Z,5.30
2017-08-16T23:18:07.676Z,5.50
2017-08-16T23:20:34.491Z,5.20
2017-08-16T23:23:01.507Z,4.57
2017-08-16T23:25:28.622Z,5.87
2017-08-16T23:27:56.070Z,5.67
2017-08-16T23:30:23.124Z,5.53
2017-08-16T23:32:50.956Z,6.03
2017-08-16T23:35:18.615Z,6.03
2017-08-16T23:37:46.261Z,4.90
2017-08-16T23:40:13.947Z,5.00
2017-08-16T23:42:41.701Z,5.63
2017-08-16T23:45:08.830Z,5.90
2017-08-16T23:47:36.031Z,5.03
2017-08-16T23:50:03.925Z,5.00
2017-08-16T23:52:31.555Z,5.10
2017-08-16T23:54:58.566Z,5.17
2017-08-16T23:57:25.615Z,4.13
2017-08-16T23:59:52.418Z,5.50
